Naiad — WDJ7117 — position and weather

sailwx.info

Track history (hours):
 
Tides and Currents Weather Stations Pressure Air Temp Water Temp Dewpoint Dewpoint Depression Visibility Wind Speed Wind Dir Waves Ship Positions

Naiad

Owner: Miller, Douglas P, Port Orchard, WA. More information available from US FCC via Universal Licensing System and Coast Guard Vessel Documentation Center.

Last reported at 2017-Sep-26 23:06 UTC. Time now 2017-Oct-20 18:30 UTC.
Position N 47°33' W 122°39'.
Warning: this ship's position is 23 days out of date.

Length 14 m.

Type: Sailing vessel. MMSI: 366896730.

Date/timePositionNaut miles runAvg speedWind from/ knotsBaromVisibWave heightAir tempDewpointWater temp
2017-Sep-26 23:06N 47°33' W 122°39'1 5.2
2017-Sep-26 22:56N 47°33' W 122°37'3 6.1
2017-Sep-26 22:26N 47°35' W 122°34'0 0.7
2017-Sep-26 21:55N 47°35' W 122°33'0 0.0
2017-Sep-26 21:28N 47°35' W 122°33'0 0.0
2017-Sep-26 19:19N 47°35' W 122°33'0 0.0
2017-Sep-26 18:58N 47°35' W 122°33'0 0.0
2017-Sep-26 18:28N 47°35' W 122°33'0 0.0
2017-Sep-26 17:58N 47°35' W 122°33'0 0.0
2017-Sep-26 17:28N 47°35' W 122°33'0 0.0
2017-Sep-26 16:58N 47°35' W 122°33'0 0.0
2017-Sep-26 16:28N 47°35' W 122°33'0 0.0
2017-Sep-26 15:52N 47°35' W 122°33'0 0.0
2017-Sep-26 15:10N 47°35' W 122°33'0 0.0
2017-Sep-26 14:16N 47°35' W 122°33'0 0.0
2017-Sep-26 13:58N 47°35' W 122°33'0 0.0
2017-Sep-26 13:28N 47°35' W 122°33'0 0.0
2017-Sep-26 11:46N 47°35' W 122°33'0 0.0
2017-Sep-26 11:19N 47°35' W 122°33'0 0.0
2017-Sep-26 10:55N 47°35' W 122°33'0 0.0
2017-Sep-26 10:28N 47°35' W 122°33'0 0.0
2017-Sep-26 09:01N 47°35' W 122°33'0 0.0
2017-Sep-26 08:49N 47°35' W 122°33'0 0.0
2017-Sep-26 08:28N 47°35' W 122°33'0 0.0
2017-Sep-26 07:16N 47°35' W 122°33'0 0.0
2017-Sep-26 06:40N 47°35' W 122°33'0 0.0
2017-Sep-26 06:22N 47°35' W 122°33'0 0.0
2017-Sep-26 05:43N 47°35' W 122°33'0 0.0
2017-Sep-26 05:22N 47°35' W 122°33'0 0.0
2017-Sep-26 04:58N 47°35' W 122°33'0 0.0
2017-Sep-26 04:28N 47°35' W 122°33'0 0.0
2017-Sep-25 03:12N 47°35' W 122°34'8 6.3
2017-Sep-25 01:55N 47°43' W 122°33'3 6.7
2017-Sep-25 01:30N 47°44' W 122°29'3 6.4
2017-Sep-25 01:00N 47°47' W 122°28'3 6.9
2017-Sep-25 00:30N 47°51' W 122°30'3 6.9
2017-Sep-25 00:00N 47°54' W 122°31'39 5.4
2017-Sep-24 16:48N 48°26' W 123°04'2 6.1
2017-Sep-24 16:30N 48°27' W 123°05'3 5.0
2017-Sep-24 16:00N 48°29' W 123°08'3 5.4
2017-Sep-24 15:30N 48°32' W 123°10'3 5.9
2017-Sep-24 15:00N 48°35' W 123°11'1 0.1
2017-Sep-24 00:18N 48°35' W 123°10'1 2.7
2017-Sep-23 23:56N 48°36' W 123°10'1 0.4
2017-Sep-23 22:39N 48°37' W 123°10'0 1.2
2017-Sep-23 22:17N 48°37' W 123°10'2 6.2
2017-Sep-23 22:00N 48°39' W 123°10'7 0.1
2017-Sep-22 00:10N 48°35' W 123°02'1 7.5
2017-Sep-21 23:59N 48°34' W 123°01'1 2.1
2017-Sep-21 23:29N 48°33' W 123°01'0 0.1
2017-Sep-21 21:03N 48°33' W 123°01'0 1.0
2017-Sep-21 21:01N 48°33' W 123°01'0 0.5
2017-Sep-21 20:30N 48°32' W 123°01'1 2.0
2017-Sep-21 20:00N 48°33' W 122°60'1 2.3
2017-Sep-21 19:30N 48°32' W 122°58'0 0.6
2017-Sep-21 19:00N 48°32' W 122°58'1 2.0
2017-Sep-21 18:28N 48°32' W 122°60'0 0.6
2017-Sep-21 17:59N 48°32' W 123°00'0 1.0
2017-Sep-21 17:30N 48°33' W 122°60'1 0.1
2017-Sep-20 23:32N 48°34' W 122°59'0 0.0
2017-Sep-20 23:29N 48°34' W 122°59'0 0.0
2017-Sep-20 22:59N 48°34' W 122°59'1 1.6
2017-Sep-20 22:30N 48°33' W 122°59'43 7.1
2017-Sep-20 16:26N 47°54' W 122°31'3 7.6
2017-Sep-20 16:00N 47°51' W 122°29'  
Track history (hours):
 
Tides and Currents Weather Stations Pressure Air Temp Water Temp Dewpoint Dewpoint Depression Visibility Wind Speed Wind Dir Waves Ship Positions

Naiad

Owner: Miller, Douglas P, Port Orchard, WA. More information available from US FCC via Universal Licensing System and Coast Guard Vessel Documentation Center.

Last reported at 2017-Sep-26 23:06 UTC. Time now 2017-Oct-20 18:30 UTC.
Position N 47°33' W 122°39'.
Warning: this ship's position is 23 days out of date.

Length 14 m.

Type: Sailing vessel. MMSI: 366896730.

Date/timePositionNaut miles runAvg speedWind from/ knotsBaromVisibWave heightAir tempDewpointWater temp
2017-Sep-26 23:06N 47°33' W 122°39'1 5.2
2017-Sep-26 22:56N 47°33' W 122°37'3 6.1
2017-Sep-26 22:26N 47°35' W 122°34'0 0.7
2017-Sep-26 21:55N 47°35' W 122°33'0 0.0
2017-Sep-26 21:28N 47°35' W 122°33'0 0.0
2017-Sep-26 19:19N 47°35' W 122°33'0 0.0
2017-Sep-26 18:58N 47°35' W 122°33'0 0.0
2017-Sep-26 18:28N 47°35' W 122°33'0 0.0
2017-Sep-26 17:58N 47°35' W 122°33'0 0.0
2017-Sep-26 17:28N 47°35' W 122°33'0 0.0
2017-Sep-26 16:58N 47°35' W 122°33'0 0.0
2017-Sep-26 16:28N 47°35' W 122°33'0 0.0
2017-Sep-26 15:52N 47°35' W 122°33'0 0.0
2017-Sep-26 15:10N 47°35' W 122°33'0 0.0
2017-Sep-26 14:16N 47°35' W 122°33'0 0.0
2017-Sep-26 13:58N 47°35' W 122°33'0 0.0
2017-Sep-26 13:28N 47°35' W 122°33'0 0.0
2017-Sep-26 11:46N 47°35' W 122°33'0 0.0
2017-Sep-26 11:19N 47°35' W 122°33'0 0.0
2017-Sep-26 10:55N 47°35' W 122°33'0 0.0
2017-Sep-26 10:28N 47°35' W 122°33'0 0.0
2017-Sep-26 09:01N 47°35' W 122°33'0 0.0
2017-Sep-26 08:49N 47°35' W 122°33'0 0.0
2017-Sep-26 08:28N 47°35' W 122°33'0 0.0
2017-Sep-26 07:16N 47°35' W 122°33'0 0.0
2017-Sep-26 06:40N 47°35' W 122°33'0 0.0
2017-Sep-26 06:22N 47°35' W 122°33'0 0.0
2017-Sep-26 05:43N 47°35' W 122°33'0 0.0
2017-Sep-26 05:22N 47°35' W 122°33'0 0.0
2017-Sep-26 04:58N 47°35' W 122°33'0 0.0
2017-Sep-26 04:28N 47°35' W 122°33'0 0.0
2017-Sep-25 03:12N 47°35' W 122°34'8 6.3
2017-Sep-25 01:55N 47°43' W 122°33'3 6.7
2017-Sep-25 01:30N 47°44' W 122°29'3 6.4
2017-Sep-25 01:00N 47°47' W 122°28'3 6.9
2017-Sep-25 00:30N 47°51' W 122°30'3 6.9
2017-Sep-25 00:00N 47°54' W 122°31'39 5.4
2017-Sep-24 16:48N 48°26' W 123°04'2 6.1
2017-Sep-24 16:30N 48°27' W 123°05'3 5.0
2017-Sep-24 16:00N 48°29' W 123°08'3 5.4
2017-Sep-24 15:30N 48°32' W 123°10'3 5.9
2017-Sep-24 15:00N 48°35' W 123°11'1 0.1
2017-Sep-24 00:18N 48°35' W 123°10'1 2.7
2017-Sep-23 23:56N 48°36' W 123°10'1 0.4
2017-Sep-23 22:39N 48°37' W 123°10'0 1.2
2017-Sep-23 22:17N 48°37' W 123°10'2 6.2
2017-Sep-23 22:00N 48°39' W 123°10'7 0.1
2017-Sep-22 00:10N 48°35' W 123°02'1 7.5
2017-Sep-21 23:59N 48°34' W 123°01'1 2.1
2017-Sep-21 23:29N 48°33' W 123°01'0 0.1
2017-Sep-21 21:03N 48°33' W 123°01'0 1.0
2017-Sep-21 21:01N 48°33' W 123°01'0 0.5
2017-Sep-21 20:30N 48°32' W 123°01'1 2.0
2017-Sep-21 20:00N 48°33' W 122°60'1 2.3
2017-Sep-21 19:30N 48°32' W 122°58'0 0.6
2017-Sep-21 19:00N 48°32' W 122°58'1 2.0
2017-Sep-21 18:28N 48°32' W 122°60'0 0.6
2017-Sep-21 17:59N 48°32' W 123°00'0 1.0
2017-Sep-21 17:30N 48°33' W 122°60'1 0.1
2017-Sep-20 23:32N 48°34' W 122°59'0 0.0
2017-Sep-20 23:29N 48°34' W 122°59'0 0.0
2017-Sep-20 22:59N 48°34' W 122°59'1 1.6
2017-Sep-20 22:30N 48°33' W 122°59'43 7.1
2017-Sep-20 16:26N 47°54' W 122°31'3 7.6
2017-Sep-20 16:00N 47°51' W 122°29'  

Dump ship's entire track history